Terminal Aerodrome Forecast
Issued by NWS

Home | Current Version | Previous Version | Graphics & Text | Print | Product List | Glossary On
Versions: 1 2 3 4 5 6 7 8 9 10 11 12 13 14 15 16 17 18
988
FTUS43 KIWX 230538
TAFSBN
TAF
KSBN 230538Z 2306/2406 22007KT P6SM VCSH SCT070 BKN100
     FM230800 20005KT P6SM OVC070
      TEMPO 2308/2311 -RA
     FM231500 21006KT P6SM VCSH BKN050
      TEMPO 2317/2321 6SM -SHRA BR
     FM232200 14005KT P6SM VCSH OVC050
     FM240000 07005KT P6SM VCSH OVC050
     FM240500 06004KT P6SM BKN030=

USA.gov is the U.S. government's official web portal to all federal, state and local government web resources and services.